Time;durP1;ratioP1;P1;durP2;ratioP2;P2;SDS_P1;SDS_P2;PMS_P1;PMS_P2;Temp;Humidity;BMP_temperature;BMP_pressure;BME280_temperature;BME280_humidity;BME280_pressure;Samples;Min_cycle;Max_cycle;Signal;HPM_P1;HPM_P2
2022/01/11 00:00:22;;;;;;;202.48;113.32;;;5.00;99.90;;;;;;4996332;28;20037;-73
2022/01/11 00:02:49;;;;;;;52.45;27.88;;;5.00;99.90;;;;;;4996043;28;20033;-73
2022/01/11 00:05:30;;;;;;;44.30;21.83;;;5.00;99.90;;;;;;4996331;28;20022;-73
2022/01/11 00:07:56;;;;;;;40.83;20.90;;;5.00;99.90;;;;;;4999415;28;20022;-73
2022/01/11 00:10:28;;;;;;;36.95;19.50;;;4.90;99.90;;;;;;4996987;28;20424;-73
2022/01/11 00:12:55;;;;;;;40.75;20.58;;;4.90;99.90;;;;;;4996676;28;20037;-73
2022/01/11 00:15:24;;;;;;;38.55;19.48;;;4.80;99.90;;;;;;4998245;28;20034;-73
2022/01/11 00:17:50;;;;;;;37.85;18.27;;;4.80;99.90;;;;;;4997296;28;20072;-73
2022/01/11 00:20:19;;;;;;;37.78;19.05;;;4.80;99.90;;;;;;4998263;28;20037;-73
2022/01/11 00:24:28;;;;;;;36.92;18.08;;;4.80;99.90;;;;;;4996044;28;20034;-74
2022/01/11 00:25:45;;;;;;;35.03;17.40;;;4.80;99.90;;;;;;4998169;28;20049;-73
2022/01/11 00:28:13;;;;;;;33.05;16.17;;;4.80;99.90;;;;;;5001118;28;20026;-73
2022/01/11 00:30:41;;;;;;;35.13;17.63;;;4.70;99.90;;;;;;5003855;28;20026;-74
2022/01/11 00:33:11;;;;;;;34.65;17.40;;;4.70;99.90;;;;;;5004410;28;20022;-73
2022/01/11 00:35:45;;;;;;;34.70;17.35;;;4.70;99.90;;;;;;4999653;28;20125;-73
2022/01/11 00:38:16;;;;;;;30.13;16.08;;;4.70;99.90;;;;;;5002115;28;20037;-74
2022/01/11 00:41:03;;;;;;;31.83;16.05;;;4.60;99.90;;;;;;5002115;28;20101;-73
2022/01/11 00:43:30;;;;;;;30.27;16.77;;;4.70;99.90;;;;;;5004709;28;20030;-73
2022/01/11 00:45:57;;;;;;;35.17;16.73;;;4.60;99.90;;;;;;5000281;28;20091;-74
2022/01/11 00:48:23;;;;;;;32.45;16.73;;;4.60;99.90;;;;;;5002527;28;20058;-73
2022/01/11 00:50:49;;;;;;;35.50;16.95;;;4.60;99.90;;;;;;4997509;28;20034;-73
2022/01/11 00:53:18;;;;;;;31.25;15.80;;;4.60;99.90;;;;;;4998576;28;20077;-74
2022/01/11 00:59:25;;;;;;;31.02;15.93;;;4.60;99.90;;;;;;4994405;28;20032;-72
2022/01/11 01:01:50;;;;;;;30.85;15.85;;;4.50;99.90;;;;;;4992702;28;20022;-73
2022/01/11 01:04:16;;;;;;;34.22;16.90;;;4.60;99.90;;;;;;4998582;28;20061;-74
2022/01/11 01:06:44;;;;;;;37.65;17.63;;;4.50;99.90;;;;;;4998158;28;20042;-74
2022/01/11 01:09:10;;;;;;;34.83;16.75;;;4.50;99.90;;;;;;4982605;28;20022;-75
2022/01/11 01:11:35;;;;;;;32.00;17.33;;;4.50;99.90;;;;;;4998235;28;20073;-75
2022/01/11 01:14:01;;;;;;;34.20;17.13;;;4.50;99.90;;;;;;4997558;28;20459;-73
2022/01/11 01:16:27;;;;;;;39.88;17.20;;;4.50;99.90;;;;;;4999328;28;20025;-74
2022/01/11 01:18:53;;;;;;;32.53;17.00;;;4.50;99.90;;;;;;4999405;28;20117;-73
2022/01/11 01:21:19;;;;;;;31.17;15.75;;;4.50;99.90;;;;;;4998965;28;20069;-73
2022/01/11 01:23:45;;;;;;;35.90;17.15;;;4.50;99.90;;;;;;4997172;28;20021;-73
2022/01/11 01:26:11;;;;;;;36.22;17.70;;;4.60;99.90;;;;;;4999829;28;20103;-73
2022/01/11 01:28:38;;;;;;;36.22;17.45;;;4.60;99.90;;;;;;4998912;28;20046;-74
2022/01/11 01:31:04;;;;;;;35.08;17.00;;;4.60;99.90;;;;;;4997348;28;20038;-73
2022/01/11 01:33:32;;;;;;;33.35;17.70;;;4.60;99.90;;;;;;5001251;28;20030;-73
2022/01/11 01:36:03;;;;;;;36.40;17.65;;;4.50;99.90;;;;;;5000423;28;20032;-74
2022/01/11 01:38:30;;;;;;;;;;;4.50;99.90;;;;;;4997206;28;20058;-73
2022/01/11 01:41:02;;;;;;;36.53;16.75;;;4.50;99.90;;;;;;5003559;28;19976;-73
2022/01/11 01:43:29;;;;;;;39.47;19.42;;;4.50;99.90;;;;;;5005909;28;20022;-74
2022/01/11 01:45:59;;;;;;;42.70;18.40;;;4.50;99.90;;;;;;4999710;28;20030;-73
2022/01/11 01:48:25;;;;;;;38.63;17.77;;;4.40;99.90;;;;;;4983457;28;20044;-73
2022/01/11 01:50:51;;;;;;;40.72;17.67;;;4.50;99.90;;;;;;4999774;28;20550;-73
2022/01/11 01:53:18;;;;;;;40.33;17.80;;;4.50;99.90;;;;;;4998608;28;20111;-73
2022/01/11 01:55:47;;;;;;;40.63;18.73;;;4.50;99.90;;;;;;5001857;28;20026;-73
2022/01/11 01:58:15;;;;;;;43.05;17.77;;;4.50;99.90;;;;;;4979840;28;20114;-74
2022/01/11 02:00:45;;;;;;;38.65;17.88;;;4.40;99.90;;;;;;4998690;28;20499;-73
2022/01/11 02:03:13;;;;;;;38.53;17.58;;;4.40;99.90;;;;;;4997843;28;20500;-73
2022/01/11 02:05:41;;;;;;;38.50;18.50;;;4.40;99.90;;;;;;4999635;28;20081;-74
2022/01/11 02:08:09;;;;;;;35.78;17.10;;;4.40;99.90;;;;;;4982362;28;20061;-74
2022/01/11 02:10:37;;;;;;;35.10;18.05;;;4.40;99.90;;;;;;5000048;28;20495;-73
2022/01/11 02:13:05;;;;;;;47.25;24.60;;;4.50;99.90;;;;;;4996496;28;20029;-73
2022/01/11 02:15:32;;;;;;;44.45;22.45;;;4.50;99.90;;;;;;4996892;28;20029;-74
2022/01/11 02:18:14;;;;;;;37.67;19.38;;;4.40;99.90;;;;;;4982060;28;20396;-73
2022/01/11 02:20:45;;;;;;;39.65;18.83;;;4.40;99.90;;;;;;4981730;28;20034;-73
2022/01/11 02:23:13;;;;;;;40.53;18.73;;;4.40;99.90;;;;;;4976579;28;20083;-73
2022/01/11 02:25:40;;;;;;;43.15;21.55;;;4.40;99.90;;;;;;4992445;28;20568;-73
2022/01/11 02:28:13;;;;;;;38.65;18.33;;;4.40;99.90;;;;;;4997689;28;20031;-73
2022/01/11 02:30:41;;;;;;;39.35;18.45;;;4.40;99.90;;;;;;4980797;28;20033;-74
2022/01/11 02:33:18;;;;;;;40.33;18.58;;;4.40;99.90;;;;;;4998198;28;20026;-74
2022/01/11 02:35:49;;;;;;;34.40;17.38;;;4.40;99.90;;;;;;4995620;28;20058;-73
2022/01/11 02:38:17;;;;;;;36.35;18.00;;;4.40;99.90;;;;;;4999283;28;20060;-73
2022/01/11 02:40:47;;;;;;;39.90;19.42;;;4.40;99.90;;;;;;4985040;28;20018;-73
2022/01/11 02:43:16;;;;;;;37.28;18.80;;;4.40;99.90;;;;;;4996055;28;20480;-73
2022/01/11 02:45:42;;;;;;;40.50;19.65;;;4.40;99.90;;;;;;4997486;28;20109;-73
2022/01/11 02:48:09;;;;;;;38.85;17.50;;;4.40;99.90;;;;;;5000107;28;20057;-73
2022/01/11 02:50:37;;;;;;;40.38;18.23;;;4.40;99.90;;;;;;4998315;28;20030;-73
2022/01/11 02:53:04;;;;;;;40.38;18.30;;;4.40;99.90;;;;;;4978599;28;20040;-74
2022/01/11 02:55:37;;;;;;;43.90;19.45;;;4.40;99.90;;;;;;4995815;28;20109;-73
2022/01/11 02:58:04;;;;;;;34.95;16.85;;;4.30;99.90;;;;;;4993748;28;20431;-74
2022/01/11 03:00:33;;;;;;;39.42;17.42;;;4.30;99.90;;;;;;4980764;28;20119;-74
2022/01/11 03:03:16;;;;;;;40.72;18.48;;;4.30;99.90;;;;;;4978981;28;20097;-74
2022/01/11 03:05:54;;;;;;;43.72;19.25;;;4.40;99.90;;;;;;4980334;28;20043;-74
2022/01/11 03:08:21;;;;;;;36.42;17.45;;;4.40;99.90;;;;;;4996425;28;20037;-74
2022/01/11 03:10:49;;;;;;;35.03;16.95;;;4.30;99.90;;;;;;4997747;28;20106;-74
2022/01/11 03:13:16;;;;;;;37.17;17.35;;;4.40;99.90;;;;;;4993642;28;20502;-73
2022/01/11 03:15:44;;;;;;;39.83;19.45;;;4.40;99.90;;;;;;4999656;28;20491;-74
2022/01/11 03:18:10;;;;;;;39.58;17.65;;;4.40;99.90;;;;;;4999306;28;20065;-73
2022/01/11 03:20:37;;;;;;;46.42;18.08;;;4.40;99.90;;;;;;4996311;28;20026;-74
2022/01/11 03:23:03;;;;;;;38.03;18.27;;;4.40;99.90;;;;;;4995659;28;20033;-74
2022/01/11 03:25:29;;;;;;;42.08;18.00;;;4.40;99.90;;;;;;4998727;28;20374;-74
2022/01/11 03:27:55;;;;;;;43.03;18.27;;;4.40;99.90;;;;;;4994764;28;20034;-74
2022/01/11 03:30:21;;;;;;;42.53;18.90;;;4.40;99.90;;;;;;4995170;28;20030;-74
2022/01/11 03:32:47;;;;;;;42.22;18.33;;;4.40;99.90;;;;;;4997334;28;20026;-74
2022/01/11 03:35:12;;;;;;;46.95;19.88;;;4.30;99.90;;;;;;4995410;28;20030;-74
2022/01/11 03:37:39;;;;;;;40.22;17.75;;;4.30;99.90;;;;;;4994195;28;20112;-74
2022/01/11 03:40:09;;;;;;;42.95;18.25;;;4.30;99.90;;;;;;4995207;28;20061;-74
2022/01/11 03:42:35;;;;;;;37.28;17.58;;;4.30;99.90;;;;;;4993962;28;20149;-74
2022/01/11 03:45:01;;;;;;;42.55;18.83;;;4.30;99.90;;;;;;4997430;28;20104;-74
2022/01/11 03:47:26;;;;;;;47.70;19.65;;;4.30;99.90;;;;;;4998382;28;20100;-74
2022/01/11 03:49:52;;;;;;;45.20;20.27;;;4.30;99.90;;;;;;4998826;28;20072;-74
2022/01/11 03:52:21;;;;;;;45.13;19.80;;;4.30;99.90;;;;;;4994338;28;20084;-74
2022/01/11 03:57:28;;;;;;;47.20;19.75;;;4.30;99.90;;;;;;4999572;28;20102;-74
2022/01/11 03:59:55;;;;;;;55.00;22.00;;;4.30;99.90;;;;;;4999993;28;20050;-74
2022/01/11 04:02:22;;;;;;;52.03;22.13;;;4.30;99.90;;;;;;4998902;28;20056;-74
2022/01/11 04:04:52;;;;;;;46.35;21.23;;;4.30;99.90;;;;;;5000358;28;20113;-74
2022/01/11 04:07:24;;;;;;;54.67;21.10;;;4.30;99.90;;;;;;4997741;28;20046;-74
2022/01/11 04:09:52;;;;;;;43.05;19.33;;;4.40;99.90;;;;;;5017739;28;20026;-74
2022/01/11 04:12:18;;;;;;;50.28;21.33;;;4.40;99.90;;;;;;5000679;28;20048;-74
2022/01/11 04:14:44;;;;;;;42.60;19.48;;;4.40;99.90;;;;;;5000305;28;20083;-74
2022/01/11 04:17:11;;;;;;;45.60;19.23;;;4.40;99.90;;;;;;4995570;28;20616;-74
2022/01/11 04:19:36;;;;;;;44.17;19.45;;;4.40;99.90;;;;;;4996385;28;20061;-74
2022/01/11 04:22:03;;;;;;;47.10;20.13;;;4.40;99.90;;;;;;4996801;28;20088;-74
2022/01/11 04:24:29;;;;;;;51.22;20.08;;;4.40;99.90;;;;;;4998135;28;20025;-73
2022/01/11 04:26:55;;;;;;;53.90;20.17;;;4.40;99.90;;;;;;4994818;28;20260;-73
2022/01/11 04:29:21;;;;;;;53.28;19.85;;;4.40;99.90;;;;;;4995989;28;20103;-73
2022/01/11 04:31:46;;;;;;;54.70;18.50;;;4.40;99.90;;;;;;4995921;28;20083;-74
2022/01/11 04:34:12;;;;;;;51.88;19.42;;;4.40;99.90;;;;;;4994442;28;20022;-74
2022/01/11 04:36:38;;;;;;;46.90;17.33;;;4.40;99.90;;;;;;4992524;28;20377;-74
2022/01/11 04:39:06;;;;;;;50.55;17.70;;;4.40;99.90;;;;;;4999091;28;20503;-73
2022/01/11 04:41:32;;;;;;;46.35;16.75;;;4.40;99.90;;;;;;4999546;28;20376;-74
2022/01/11 04:43:58;;;;;;;47.78;16.50;;;4.40;99.90;;;;;;4996183;28;20035;-74
2022/01/11 04:46:26;;;;;;;44.72;17.15;;;4.40;99.90;;;;;;4996858;28;20029;-73
2022/01/11 04:48:52;;;;;;;39.45;16.33;;;4.40;99.90;;;;;;4996669;28;20484;-73
2022/01/11 04:51:20;;;;;;;45.35;15.95;;;4.50;99.90;;;;;;5000192;28;20026;-74
2022/01/11 04:53:47;;;;;;;41.97;17.33;;;4.50;99.90;;;;;;4994496;28;20057;-74
2022/01/11 04:56:13;;;;;;;54.35;16.65;;;4.40;99.90;;;;;;4996522;28;20030;-73
2022/01/11 04:58:38;;;;;;;44.72;15.20;;;4.50;99.90;;;;;;4996298;28;20037;-73
2022/01/11 05:01:04;;;;;;;43.03;15.05;;;4.50;99.90;;;;;;5000120;28;20046;-74
2022/01/11 05:03:30;;;;;;;43.78;15.90;;;4.40;99.90;;;;;;4999007;28;20121;-74
2022/01/11 05:05:55;;;;;;;43.42;15.25;;;4.40;99.90;;;;;;4994071;28;20077;-74
2022/01/11 05:08:21;;;;;;;40.10;14.75;;;4.40;99.90;;;;;;5000025;28;20053;-74
2022/01/11 05:10:47;;;;;;;35.60;13.90;;;4.40;99.90;;;;;;4996592;28;20026;-73
2022/01/11 05:13:15;;;;;;;36.53;13.57;;;4.40;99.90;;;;;;4999737;28;20018;-73
2022/01/11 05:15:41;;;;;;;41.50;14.45;;;4.40;99.90;;;;;;5001633;28;20018;-73
2022/01/11 05:18:08;;;;;;;43.17;16.13;;;4.40;99.90;;;;;;4991085;28;20023;-74
2022/01/11 05:20:35;;;;;;;32.08;13.55;;;4.40;99.90;;;;;;4997773;28;20029;-74
2022/01/11 05:23:01;;;;;;;43.20;16.05;;;4.40;99.90;;;;;;5002462;28;20030;-73
2022/01/11 05:25:27;;;;;;;36.20;15.10;;;4.40;99.90;;;;;;5000715;28;20617;-74
2022/01/11 05:27:53;;;;;;;43.88;17.02;;;4.30;99.90;;;;;;5001370;28;20026;-73
2022/01/11 05:30:19;;;;;;;42.13;14.82;;;4.30;99.90;;;;;;4998189;28;20396;-73
2022/01/11 05:32:45;;;;;;;41.83;14.88;;;4.30;99.90;;;;;;4997013;28;20029;-73
2022/01/11 05:35:12;;;;;;;40.08;15.70;;;4.30;99.90;;;;;;5000015;28;20080;-73
2022/01/11 05:37:39;;;;;;;39.17;15.13;;;4.30;99.90;;;;;;5001696;28;20482;-74
2022/01/11 05:40:07;;;;;;;35.60;14.48;;;4.30;99.90;;;;;;5003003;28;20042;-74
2022/01/11 05:42:33;;;;;;;39.40;14.77;;;4.30;99.90;;;;;;4998094;28;20034;-73
2022/01/11 05:44:59;;;;;;;43.38;15.18;;;4.30;99.90;;;;;;5000146;28;20038;-73
2022/01/11 05:47:25;;;;;;;42.25;15.15;;;4.30;99.90;;;;;;5000635;28;20045;-73
2022/01/11 05:49:51;;;;;;;45.72;16.75;;;4.30;99.90;;;;;;4999739;28;20429;-73
2022/01/11 05:52:17;;;;;;;43.45;15.60;;;4.20;99.90;;;;;;4998481;28;20029;-74
2022/01/11 05:54:43;;;;;;;40.70;15.57;;;4.20;99.90;;;;;;4999061;28;20053;-73
2022/01/11 05:57:09;;;;;;;42.25;15.77;;;4.20;99.90;;;;;;4997766;28;20496;-73
2022/01/11 05:59:35;;;;;;;39.25;15.55;;;4.20;99.90;;;;;;4995691;28;20030;-73
2022/01/11 06:02:00;;;;;;;46.35;16.08;;;4.10;99.90;;;;;;4998673;28;20496;-73
2022/01/11 06:04:26;;;;;;;47.33;15.95;;;4.20;99.90;;;;;;4999512;28;20027;-74
2022/01/11 06:06:52;;;;;;;36.03;14.82;;;4.10;99.90;;;;;;4998068;28;20365;-73
2022/01/11 06:09:18;;;;;;;44.30;15.75;;;4.10;99.90;;;;;;4998821;28;20033;-72
2022/01/11 06:11:44;;;;;;;38.55;14.55;;;4.10;99.90;;;;;;4998358;28;20401;-72
2022/01/11 06:14:09;;;;;;;39.17;14.60;;;4.10;99.90;;;;;;4997996;28;20484;-73
2022/01/11 06:16:36;;;;;;;39.47;14.98;;;4.10;99.90;;;;;;4998433;28;20033;-73
2022/01/11 06:19:06;;;;;;;35.30;15.43;;;4.10;99.90;;;;;;4998261;28;20488;-73
2022/01/11 06:21:31;;;;;;;33.17;13.25;;;4.10;99.90;;;;;;5005334;28;20033;-73
2022/01/11 06:23:57;;;;;;;37.38;14.75;;;4.20;99.90;;;;;;5000377;28;20105;-72
2022/01/11 06:26:22;;;;;;;41.63;14.88;;;4.10;99.90;;;;;;4998094;28;20041;-73
2022/01/11 06:28:48;;;;;;;30.92;13.20;;;4.10;99.90;;;;;;4997606;28;20506;-73
2022/01/11 06:31:14;;;;;;;34.33;13.77;;;4.10;99.90;;;;;;4997443;28;20081;-72
2022/01/11 06:33:40;;;;;;;35.05;13.55;;;4.10;99.90;;;;;;5000917;28;20030;-73
2022/01/11 06:36:10;;;;;;;37.53;14.98;;;4.10;99.90;;;;;;4996260;28;20108;-73
2022/01/11 06:38:38;;;;;;;35.92;13.13;;;4.10;99.90;;;;;;4999586;28;20082;-73
2022/01/11 06:41:04;;;;;;;45.20;14.68;;;4.10;99.90;;;;;;4999028;28;20432;-73
2022/01/11 06:43:30;;;;;;;39.30;14.48;;;4.10;99.90;;;;;;5000908;28;20096;-73
2022/01/11 06:45:55;;;;;;;33.63;13.48;;;4.10;99.90;;;;;;4999749;28;20530;-73
2022/01/11 06:48:21;;;;;;;37.17;13.93;;;4.10;99.90;;;;;;4999113;28;20066;-73
2022/01/11 06:50:47;;;;;;;36.97;13.55;;;4.20;99.90;;;;;;4997812;28;20033;-72
2022/01/11 06:53:13;;;;;;;35.67;13.25;;;4.10;99.90;;;;;;4999467;28;20102;-73
2022/01/11 06:55:38;;;;;;;34.83;13.45;;;4.10;99.90;;;;;;4999751;28;20105;-75
2022/01/11 06:58:04;;;;;;;42.90;15.02;;;4.20;99.90;;;;;;4998514;28;20066;-73
2022/01/11 07:00:30;;;;;;;35.45;13.18;;;4.20;99.90;;;;;;5001366;28;20534;-73
2022/01/11 07:02:55;;;;;;;32.33;12.85;;;4.20;99.90;;;;;;5000845;28;20384;-73
2022/01/11 07:05:22;;;;;;;38.80;13.77;;;4.20;99.90;;;;;;4997265;28;20076;-73
2022/01/11 07:07:48;;;;;;;36.70;13.23;;;4.20;99.90;;;;;;4998113;28;20072;-75
2022/01/11 07:10:14;;;;;;;38.30;14.68;;;4.20;99.90;;;;;;5001481;28;20058;-71
2022/01/11 07:12:40;;;;;;;34.97;13.52;;;4.30;99.90;;;;;;4982259;28;20027;-72
2022/01/11 07:15:06;;;;;;;35.08;14.35;;;4.20;99.90;;;;;;4995186;28;20026;-73
2022/01/11 07:17:32;;;;;;;36.05;13.85;;;4.20;99.90;;;;;;4996014;28;20025;-72
2022/01/11 07:19:58;;;;;;;34.22;14.60;;;4.20;99.90;;;;;;4995521;28;20452;-73
2022/01/11 07:22:23;;;;;;;40.25;14.88;;;4.30;99.90;;;;;;4992102;28;20022;-73
2022/01/11 07:24:49;;;;;;;41.45;16.20;;;4.30;99.90;;;;;;4997096;28;20121;-73
2022/01/11 07:27:15;;;;;;;42.65;17.25;;;4.30;99.90;;;;;;4997855;28;20556;-73
2022/01/11 07:29:41;;;;;;;45.75;15.60;;;4.30;99.90;;;;;;4995115;28;20033;-74
2022/01/11 07:32:07;;;;;;;38.45;15.13;;;4.30;99.90;;;;;;4997697;28;20029;-75
2022/01/11 07:34:33;;;;;;;43.83;16.30;;;4.20;99.90;;;;;;4997769;28;20022;-74
2022/01/11 07:36:59;;;;;;;44.05;17.10;;;4.20;99.90;;;;;;4998022;28;20518;-72
2022/01/11 07:39:27;;;;;;;36.95;15.40;;;4.20;99.90;;;;;;4994595;28;20030;-72
2022/01/11 07:41:53;;;;;;;39.80;16.40;;;4.20;99.90;;;;;;4994652;28;20041;-73
2022/01/11 07:44:19;;;;;;;44.20;15.93;;;4.20;99.90;;;;;;4997933;28;20591;-73
2022/01/11 07:46:46;;;;;;;44.33;16.40;;;4.20;99.90;;;;;;5007927;28;20116;-72
2022/01/11 07:49:12;;;;;;;52.38;17.45;;;4.20;99.90;;;;;;4996398;28;20033;-73
2022/01/11 07:51:38;;;;;;;46.70;16.75;;;4.20;99.90;;;;;;4998226;28;20037;-72
2022/01/11 07:54:06;;;;;;;45.75;16.50;;;4.20;99.90;;;;;;4995851;28;20057;-72
2022/01/11 07:56:32;;;;;;;48.75;17.85;;;4.20;99.90;;;;;;4994392;28;20042;-74
2022/01/11 07:58:57;;;;;;;37.85;15.70;;;4.10;99.90;;;;;;4994948;28;20113;-72
2022/01/11 08:01:23;;;;;;;38.55;15.05;;;4.10;99.90;;;;;;4996858;28;20540;-72
2022/01/11 08:03:49;;;;;;;41.88;15.43;;;4.10;99.90;;;;;;4996156;28;20509;-72
2022/01/11 08:06:14;;;;;;;45.72;17.25;;;4.00;99.90;;;;;;4999890;28;20044;-72
2022/01/11 08:08:40;;;;;;;44.00;16.42;;;4.10;99.90;;;;;;4996806;28;20113;-72
2022/01/11 08:11:07;;;;;;;45.03;16.10;;;4.00;99.90;;;;;;5000658;28;20500;-73
2022/01/11 08:13:33;;;;;;;50.92;16.70;;;4.10;99.90;;;;;;4998837;28;20497;-72
2022/01/11 08:15:58;;;;;;;46.80;17.92;;;4.10;99.90;;;;;;4999150;28;20058;-73
2022/01/11 08:18:24;;;;;;;42.83;15.88;;;4.10;99.90;;;;;;4997619;28;20087;-75
2022/01/11 08:20:50;;;;;;;48.38;16.15;;;4.10;99.90;;;;;;4996488;28;20053;-72
2022/01/11 08:23:16;;;;;;;43.22;16.02;;;4.10;99.90;;;;;;4997134;28;20033;-72
2022/01/11 08:25:41;;;;;;;51.72;17.58;;;4.10;99.90;;;;;;4995245;28;20018;-72
2022/01/11 08:28:09;;;;;;;45.13;17.00;;;4.10;99.90;;;;;;4995638;28;20062;-72
2022/01/11 08:30:35;;;;;;;43.63;16.05;;;4.10;99.90;;;;;;4995089;28;20107;-72
2022/01/11 08:33:04;;;;;;;52.78;16.70;;;4.10;99.90;;;;;;4997599;28;20018;-72
2022/01/11 08:35:30;;;;;;;41.83;15.13;;;4.10;99.90;;;;;;4998027;28;20038;-73
2022/01/11 08:37:57;;;;;;;43.90;15.40;;;4.10;99.90;;;;;;4997523;28;20030;-73
2022/01/11 08:40:24;;;;;;;50.13;16.83;;;4.10;99.90;;;;;;5004845;28;20049;-74
2022/01/11 08:42:50;;;;;;;47.05;15.73;;;4.20;99.90;;;;;;5000655;28;20538;-73
2022/01/11 08:45:16;;;;;;;40.25;16.58;;;4.20;99.90;;;;;;4993346;28;20030;-72
2022/01/11 08:47:42;;;;;;;46.10;16.52;;;4.20;99.90;;;;;;5001341;28;20488;-72
2022/01/11 08:50:12;;;;;;;41.95;15.63;;;4.20;99.90;;;;;;5000603;28;20037;-74
2022/01/11 08:52:41;;;;;;;49.35;16.30;;;4.20;99.90;;;;;;4998853;28;20068;-74
2022/01/11 08:55:11;;;;;;;38.65;17.15;;;4.20;99.90;;;;;;5000608;28;20041;-74
2022/01/11 08:57:37;;;;;;;40.47;16.00;;;4.20;99.90;;;;;;5000953;28;20026;-73
2022/01/11 09:00:16;;;;;;;39.13;14.75;;;4.20;99.90;;;;;;4998412;28;20042;-73
2022/01/11 09:02:47;;;;;;;38.50;15.40;;;4.30;99.90;;;;;;5000446;28;20609;-75
2022/01/11 09:05:14;;;;;;;35.17;15.43;;;4.30;99.90;;;;;;5000070;28;20030;-73
2022/01/11 09:07:41;;;;;;;42.22;16.38;;;4.30;99.90;;;;;;5003182;28;20042;-72
2022/01/11 09:10:09;;;;;;;30.48;14.93;;;4.30;99.90;;;;;;5005624;28;20108;-76
2022/01/11 09:12:35;;;;;;;36.75;13.73;;;4.30;99.90;;;;;;5003490;28;20093;-73
2022/01/11 09:15:03;;;;;;;36.78;14.73;;;4.40;99.90;;;;;;5001733;28;20547;-73
2022/01/11 09:17:29;;;;;;;37.97;15.02;;;4.30;99.90;;;;;;4997998;28;20437;-73
2022/01/11 09:19:55;;;;;;;32.17;14.23;;;4.30;99.90;;;;;;5000495;28;20034;-71
2022/01/11 09:22:20;;;;;;;41.20;14.45;;;4.30;99.90;;;;;;5003537;28;20026;-72
2022/01/11 09:24:47;;;;;;;33.90;14.27;;;4.40;99.90;;;;;;4999354;28;20053;-73
2022/01/11 09:27:14;;;;;;;37.65;15.25;;;4.40;99.90;;;;;;5000118;28;20030;-72
2022/01/11 09:29:43;;;;;;;30.80;12.60;;;4.40;99.90;;;;;;5001452;28;20543;-72
2022/01/11 09:32:09;;;;;;;44.42;15.23;;;4.40;99.90;;;;;;5003294;28;20084;-72
2022/01/11 09:34:37;;;;;;;34.50;13.88;;;4.30;99.90;;;;;;4999567;28;20018;-72
2022/01/11 09:37:03;;;;;;;34.40;13.95;;;4.40;99.90;;;;;;5001392;28;20064;-72
2022/01/11 09:39:29;;;;;;;32.75;15.30;;;4.40;99.90;;;;;;4999879;28;20030;-72
2022/01/11 09:41:58;;;;;;;34.88;14.65;;;4.60;99.90;;;;;;4999957;28;20500;-73
2022/01/11 09:44:24;;;;;;;42.60;15.45;;;4.60;99.90;;;;;;5000481;28;20372;-72
2022/01/11 09:46:50;;;;;;;34.85;15.00;;;4.50;99.90;;;;;;5002772;28;20560;-72
2022/01/11 09:49:15;;;;;;;38.85;15.10;;;4.60;99.90;;;;;;4997472;28;20030;-72
2022/01/11 09:51:41;;;;;;;29.95;12.95;;;4.60;99.90;;;;;;5000546;28;20093;-72
2022/01/11 09:54:08;;;;;;;36.92;15.10;;;4.60;99.90;;;;;;5002608;28;20022;-73
2022/01/11 09:56:36;;;;;;;35.40;15.52;;;4.60;99.90;;;;;;4999532;28;20032;-73
2022/01/11 09:59:02;;;;;;;40.83;15.45;;;4.70;99.90;;;;;;4998574;28;20030;-72
2022/01/11 10:01:28;;;;;;;41.17;14.55;;;4.70;99.90;;;;;;4995534;28;20511;-72
2022/01/11 10:04:11;;;;;;;33.50;14.93;;;4.70;99.90;;;;;;4998763;28;20043;-72
2022/01/11 10:06:42;;;;;;;29.23;13.70;;;4.70;99.90;;;;;;4996189;28;20038;-72
2022/01/11 10:09:16;;;;;;;32.25;13.63;;;4.70;99.90;;;;;;4999169;28;20029;-73
2022/01/11 10:11:44;;;;;;;37.90;14.25;;;4.70;99.90;;;;;;4998721;28;20032;-73
2022/01/11 10:14:37;;;;;;;29.60;13.45;;;4.70;99.90;;;;;;4999321;28;20034;-73
2022/01/11 10:17:12;;;;;;;32.92;14.43;;;4.80;99.90;;;;;;4996217;28;20045;-72
2022/01/11 10:19:44;;;;;;;30.48;13.52;;;4.80;99.90;;;;;;4999602;28;20030;-72
2022/01/11 10:22:14;;;;;;;32.22;13.02;;;4.80;99.90;;;;;;4997739;28;20033;-72
2022/01/11 10:24:42;;;;;;;31.02;13.52;;;4.90;99.90;;;;;;5000008;28;20104;-72
2022/01/11 10:27:32;;;;;;;31.15;13.98;;;4.80;99.90;;;;;;4997577;28;20387;-72
2022/01/11 10:30:04;;;;;;;28.42;13.43;;;4.80;99.90;;;;;;4998279;28;20076;-72
2022/01/11 10:32:50;;;;;;;27.52;11.93;;;4.90;99.90;;;;;;5002892;28;20046;-73
2022/01/11 10:35:19;;;;;;;35.05;13.75;;;4.90;99.90;;;;;;4997670;28;20096;-72
2022/01/11 10:37:47;;;;;;;29.63;13.50;;;4.90;99.90;;;;;;4998077;28;21128;-72
2022/01/11 10:40:13;;;;;;;23.65;11.13;;;5.00;99.90;;;;;;4998790;28;20040;-72
2022/01/11 10:42:45;;;;;;;29.38;12.85;;;5.00;99.90;;;;;;4997873;28;20025;-72
2022/01/11 10:45:12;;;;;;;29.35;12.00;;;5.00;99.90;;;;;;4995498;28;20496;-73
2022/01/11 10:47:42;;;;;;;26.02;11.57;;;4.90;99.90;;;;;;5001019;28;20434;-72
2022/01/11 10:50:18;;;;;;;27.90;12.18;;;4.90;99.90;;;;;;4999059;28;20030;-72
2022/01/11 10:52:45;;;;;;;26.40;11.18;;;4.90;99.90;;;;;;4998423;28;20048;-71
2022/01/11 10:55:19;;;;;;;23.52;12.45;;;4.90;99.90;;;;;;5000219;28;20536;-73
2022/01/11 10:57:59;;;;;;;26.60;11.30;;;4.80;99.90;;;;;;4998506;28;20237;-73
2022/01/11 11:00:30;;;;;;;24.13;11.38;;;4.80;99.90;;;;;;5004072;28;20026;-73
2022/01/11 11:03:02;;;;;;;23.90;11.57;;;4.80;99.90;;;;;;4996407;28;20030;-72
2022/01/11 11:05:35;;;;;;;25.60;10.90;;;4.80;99.90;;;;;;4996260;28;20439;-73
2022/01/11 11:08:13;;;;;;;25.05;11.23;;;4.80;99.90;;;;;;4999418;28;20429;-73
2022/01/11 11:10:46;;;;;;;26.17;10.77;;;4.90;99.90;;;;;;4994134;28;20042;-72
2022/01/11 11:13:39;;;;;;;23.27;10.25;;;4.90;99.90;;;;;;4998120;28;20041;-73
2022/01/11 11:16:07;;;;;;;21.80;9.63;;;5.10;99.90;;;;;;4993227;28;20046;-72
2022/01/11 11:18:38;;;;;;;21.27;10.18;;;5.10;99.90;;;;;;4995818;28;20026;-72
2022/01/11 11:21:16;;;;;;;27.05;10.55;;;5.10;99.90;;;;;;4998367;28;20041;-73
2022/01/11 11:23:43;;;;;;;26.10;10.77;;;5.10;99.90;;;;;;4999278;28;20062;-74
2022/01/11 11:26:08;;;;;;;25.83;10.50;;;4.90;99.90;;;;;;4992418;28;20026;-73
2022/01/11 11:28:35;;;;;;;22.00;10.55;;;4.90;99.90;;;;;;4996012;28;20030;-74
2022/01/11 11:31:02;;;;;;;26.42;10.68;;;4.90;99.90;;;;;;4996030;28;20037;-72
2022/01/11 11:33:29;;;;;;;21.92;10.43;;;4.90;99.90;;;;;;4994914;28;20026;-73
2022/01/11 11:35:56;;;;;;;18.77;9.45;;;4.90;99.90;;;;;;4995868;28;20447;-73
2022/01/11 11:38:29;;;;;;;25.70;10.40;;;5.00;99.90;;;;;;4997335;28;20069;-72
2022/01/11 11:40:56;;;;;;;21.95;10.65;;;5.10;99.90;;;;;;4996330;28;20058;-73
2022/01/11 11:43:22;;;;;;;22.83;10.98;;;5.20;99.90;;;;;;4997465;28;20116;-72
2022/01/11 11:45:48;;;;;;;22.80;9.50;;;5.10;99.90;;;;;;4995218;28;20069;-73
2022/01/11 11:48:16;;;;;;;29.25;12.38;;;5.20;99.90;;;;;;4998809;28;20029;-74
2022/01/11 11:50:49;;;;;;;24.85;11.15;;;5.20;99.90;;;;;;4995778;28;20097;-73
2022/01/11 11:53:24;;;;;;;21.55;9.93;;;5.20;99.90;;;;;;4995789;28;20034;-73
2022/01/11 11:55:50;;;;;;;23.67;11.57;;;5.10;99.90;;;;;;4994203;28;20061;-72
2022/01/11 11:58:21;;;;;;;22.42;10.65;;;5.10;99.90;;;;;;4998854;28;21148;-72
2022/01/11 12:00:48;;;;;;;17.98;9.50;;;5.20;99.90;;;;;;4995211;28;20571;-73
2022/01/11 12:03:19;;;;;;;23.75;9.90;;;5.20;99.90;;;;;;4992097;28;20117;-71
2022/01/11 12:05:47;;;;;;;;;;;5.30;99.90;;;;;;4993621;28;20050;-72
2022/01/11 12:08:30;;;;;;;23.35;9.02;;;5.20;99.90;;;;;;4995795;28;19914;-74
2022/01/11 12:11:00;;;;;;;19.55;9.18;;;5.30;99.90;;;;;;4997038;28;20118;-72
2022/01/11 12:13:41;;;;;;;21.27;10.17;;;5.30;99.90;;;;;;4994822;28;20415;-72
2022/01/11 12:16:25;;;;;;;17.33;9.45;;;5.40;99.90;;;;;;4995986;28;20307;-74
2022/01/11 12:19:06;;;;;;;22.50;9.70;;;5.40;99.90;;;;;;4998042;28;20306;-75
2022/01/11 12:21:54;;;;;;;19.42;8.80;;;5.40;99.90;;;;;;4997511;28;20026;-72
2022/01/11 12:24:38;;;;;;;20.88;10.25;;;5.40;99.90;;;;;;5003446;28;20034;-75
2022/01/11 12:27:06;;;;;;;23.40;9.68;;;5.40;99.90;;;;;;4995452;28;20032;-74
2022/01/11 12:29:32;;;;;;;18.00;9.65;;;5.30;99.90;;;;;;4997270;28;20353;-73
2022/01/11 12:32:08;;;;;;;23.17;10.30;;;5.40;99.90;;;;;;4998422;28;20108;-74
2022/01/11 12:34:46;;;;;;;23.10;8.80;;;5.30;99.90;;;;;;5001326;28;20030;-73
2022/01/11 12:37:33;;;;;;;16.10;9.05;;;5.30;99.90;;;;;;5002282;28;20022;-75
2022/01/11 12:40:14;;;;;;;22.67;9.45;;;5.30;99.90;;;;;;5006177;28;20037;-72
2022/01/11 12:43:08;;;;;;;22.58;10.00;;;5.30;99.90;;;;;;5002389;28;20025;-74
2022/01/11 12:46:04;;;;;;;22.15;9.68;;;5.30;99.90;;;;;;5001750;28;20046;-73
2022/01/11 12:48:43;;;;;;;21.45;10.68;;;5.30;99.90;;;;;;5002867;28;20476;-76
2022/01/11 12:51:31;;;;;;;18.90;8.68;;;5.20;99.90;;;;;;5000630;28;20036;-73